createdAt,value
2023-02-19T00:01:53.411Z,100.00
2023-02-19T00:04:41.724Z,100.00
2023-02-19T00:07:33.558Z,100.00
2023-02-19T00:11:01.489Z,100.00
2023-02-19T00:14:10.208Z,100.00
2023-02-19T00:16:39.353Z,100.00
2023-02-19T00:19:30.103Z,100.00
2023-02-19T00:22:57.954Z,100.00
2023-02-19T00:25:47.305Z,100.00
2023-02-19T00:28:50.951Z,100.00
2023-02-19T00:32:03.236Z,100.00
2023-02-19T00:34:51.406Z,100.00
2023-02-19T00:37:40.551Z,100.00
2023-02-19T00:40:25.289Z,100.00
2023-02-19T00:43:33.955Z,100.00
2023-02-19T00:46:02.214Z,100.00
2023-02-19T00:49:06.346Z,100.00
2023-02-19T00:51:56.192Z,100.00
2023-02-19T00:54:45.125Z,100.00
2023-02-19T00:57:38.176Z,100.00
2023-02-19T01:00:43.050Z,100.00
2023-02-19T01:04:11.278Z,100.00
2023-02-19T01:07:04.233Z,100.00
2023-02-19T01:09:53.535Z,100.00
2023-02-19T01:12:22.442Z,100.00
2023-02-19T01:15:31.432Z,100.00
2023-02-19T01:18:43.561Z,100.00
2023-02-19T01:22:11.519Z,100.00
2023-02-19T01:25:00.773Z,100.00
2023-02-19T01:28:09.750Z,100.00
2023-02-19T01:31:17.862Z,100.00
2023-02-19T01:34:06.510Z,100.00
2023-02-19T01:37:10.167Z,100.00
2023-02-19T01:40:20.016Z,100.00
2023-02-19T01:43:08.487Z,100.00
2023-02-19T01:46:05.218Z,100.00
2023-02-19T01:48:54.580Z,100.00
2023-02-19T01:51:46.279Z,100.00
2023-02-19T01:54:39.068Z,100.00
2023-02-19T01:57:17.730Z,100.00
2023-02-19T02:00:27.834Z,100.00
2023-02-19T02:03:36.322Z,100.00
2023-02-19T02:06:07.305Z,100.00
2023-02-19T02:09:18.958Z,100.00
2023-02-19T02:12:27.882Z,100.00
2023-02-19T02:15:16.995Z,100.00
2023-02-19T02:18:44.786Z,100.00
2023-02-19T02:21:56.739Z,100.00
2023-02-19T02:25:05.745Z,100.00
2023-02-19T02:27:38.228Z,100.00
2023-02-19T02:30:07.706Z,100.00
2023-02-19T02:33:16.058Z,100.00
2023-02-19T02:35:48.781Z,100.00
2023-02-19T02:38:56.945Z,100.00
2023-02-19T02:41:47.843Z,100.00
2023-02-19T02:44:19.318Z,100.00
2023-02-19T02:47:07.442Z,100.00
2023-02-19T02:49:44.342Z,100.00
2023-02-19T02:52:52.148Z,100.00
2023-02-19T02:56:20.382Z,100.00
2023-02-19T02:59:25.435Z,100.00
2023-02-19T03:02:33.252Z,100.00
2023-02-19T03:05:42.612Z,100.00
2023-02-19T03:08:39.648Z,100.00
2023-02-19T03:11:47.507Z,100.00
2023-02-19T03:14:39.731Z,100.00
2023-02-19T03:17:28.032Z,100.00
2023-02-19T03:20:17.408Z,100.00
2023-02-19T03:23:08.155Z,100.00
2023-02-19T03:25:38.596Z,100.00
2023-02-19T03:28:45.332Z,100.00
2023-02-19T03:31:53.537Z,100.00
2023-02-19T03:34:50.312Z,100.00
2023-02-19T03:37:22.040Z,100.00
2023-02-19T03:40:29.992Z,100.00
2023-02-19T03:43:57.795Z,100.00
2023-02-19T03:46:34.501Z,100.00
2023-02-19T03:49:15.130Z,100.00
2023-02-19T03:51:52.680Z,100.00
2023-02-19T03:54:23.350Z,100.00
2023-02-19T03:57:27.986Z,100.00
2023-02-19T03:59:57.944Z,100.00
2023-02-19T04:03:05.738Z,100.00
2023-02-19T04:06:17.588Z,100.00
2023-02-19T04:09:25.719Z,100.00
2023-02-19T04:12:09.610Z,100.00
2023-02-19T04:14:55.393Z,100.00
2023-02-19T04:17:59.522Z,100.00
2023-02-19T04:20:28.256Z,100.00
2023-02-19T04:23:22.133Z,100.00
2023-02-19T04:26:11.296Z,100.00
2023-02-19T04:29:20.196Z,100.00
2023-02-19T04:32:09.060Z,100.00
2023-02-19T04:35:32.526Z,100.00
2023-02-19T04:38:22.451Z,100.00
2023-02-19T04:41:31.258Z,100.00
2023-02-19T04:44:39.373Z,100.00
2023-02-19T04:47:47.371Z,100.00
2023-02-19T04:50:41.253Z,100.00
2023-02-19T04:53:32.463Z,100.00
2023-02-19T04:56:41.681Z,100.00
2023-02-19T04:59:50.483Z,100.00
2023-02-19T05:02:40.338Z,100.00
2023-02-19T05:06:04.255Z,100.00
2023-02-19T05:08:52.484Z,100.00
2023-02-19T05:11:44.838Z,100.00
2023-02-19T05:14:42.910Z,100.00
2023-02-19T05:17:20.095Z,100.00
2023-02-19T05:20:09.918Z,100.00
2023-02-19T05:22:58.955Z,100.00
2023-02-19T05:25:50.714Z,100.00
2023-02-19T05:28:39.054Z,100.00
2023-02-19T05:31:47.351Z,100.00
2023-02-19T05:34:56.307Z,100.00
2023-02-19T05:37:49.801Z,100.00
2023-02-19T05:41:13.438Z,100.00
2023-02-19T05:44:21.458Z,100.00
2023-02-19T05:47:29.774Z,100.00
2023-02-19T05:50:22.015Z,100.00
2023-02-19T05:53:11.366Z,100.00
2023-02-19T05:56:01.742Z,100.00
2023-02-19T05:59:09.814Z,100.00
2023-02-19T06:02:10.661Z,100.00
2023-02-19T06:04:58.941Z,100.00
2023-02-19T06:07:42.688Z,100.00
2023-02-19T06:10:31.030Z,100.00
2023-02-19T06:13:27.450Z,100.00
2023-02-19T06:16:32.223Z,100.00
2023-02-19T06:19:24.525Z,100.00
2023-02-19T06:21:54.315Z,100.00
2023-02-19T06:25:17.860Z,100.00
2023-02-19T06:28:10.070Z,100.00
2023-02-19T06:31:20.058Z,100.00
2023-02-19T06:33:49.436Z,100.00
2023-02-19T06:36:59.380Z,100.00
2023-02-19T06:39:48.865Z,100.00
2023-02-19T06:42:37.222Z,100.00
2023-02-19T06:45:45.400Z,100.00
2023-02-19T06:48:37.759Z,100.00
2023-02-19T06:51:46.143Z,100.00
2023-02-19T06:54:50.578Z,100.00
2023-02-19T06:57:40.679Z,100.00
2023-02-19T07:01:04.304Z,100.00
2023-02-19T07:04:14.455Z,100.00
2023-02-19T07:07:05.510Z,100.00
2023-02-19T07:10:05.294Z,100.00
2023-02-19T07:12:54.531Z,100.00
2023-02-19T07:15:24.439Z,100.00
2023-02-19T07:18:52.370Z,100.00
2023-02-19T07:22:20.398Z,100.00
2023-02-19T07:25:30.103Z,100.00
2023-02-19T07:28:10.405Z,100.00
2023-02-19T07:31:38.752Z,100.00
2023-02-19T07:34:06.768Z,100.00
2023-02-19T07:36:56.335Z,100.00
2023-02-19T07:39:28.145Z,100.00
2023-02-19T07:41:56.575Z,100.00
2023-02-19T07:45:06.429Z,100.00
2023-02-19T07:47:50.368Z,100.00
2023-02-19T07:50:38.563Z,100.00
2023-02-19T07:53:48.302Z,100.00
2023-02-19T07:56:57.357Z,100.00
2023-02-19T07:59:44.570Z,100.00
2023-02-19T08:03:00.807Z,100.00
2023-02-19T08:05:50.699Z,100.00
2023-02-19T08:09:13.925Z,100.00
2023-02-19T08:12:02.317Z,100.00
2023-02-19T08:14:52.527Z,100.00
2023-02-19T08:17:22.068Z,100.00
2023-02-19T08:20:30.222Z,100.00
2023-02-19T08:23:18.286Z,100.00
2023-02-19T08:26:28.120Z,100.00
2023-02-19T08:28:58.778Z,99.30
2023-02-19T08:31:47.750Z,99.06
2023-02-19T08:34:25.194Z,97.92
2023-02-19T08:37:10.146Z,98.00
2023-02-19T08:40:20.059Z,97.07
2023-02-19T08:43:10.720Z,96.68
2023-02-19T08:46:00.008Z,95.70
2023-02-19T08:48:29.654Z,93.67
2023-02-19T08:51:18.367Z,91.66
2023-02-19T08:54:07.091Z,92.07
2023-02-19T08:57:15.444Z,89.81
2023-02-19T09:00:39.303Z,90.80
2023-02-19T09:03:23.752Z,89.97
2023-02-19T09:06:00.907Z,88.91
2023-02-19T09:08:33.101Z,87.76
2023-02-19T09:11:20.885Z,87.01
2023-02-19T09:13:51.041Z,85.88
2023-02-19T09:16:53.597Z,85.36
2023-02-19T09:20:01.412Z,84.10
2023-02-19T09:23:09.163Z,85.68
2023-02-19T09:25:45.209Z,86.18
2023-02-19T09:28:33.371Z,83.44
2023-02-19T09:31:04.643Z,85.49
2023-02-19T09:33:33.594Z,85.34
2023-02-19T09:36:14.953Z,84.42
2023-02-19T09:38:44.236Z,84.48
2023-02-19T09:41:40.667Z,84.92
2023-02-19T09:44:40.351Z,87.24
2023-02-19T09:47:21.908Z,85.48
2023-02-19T09:49:53.508Z,85.70
2023-02-19T09:52:45.665Z,87.33
2023-02-19T09:55:38.841Z,83.86
2023-02-19T09:58:26.291Z,85.39
2023-02-19T10:01:02.560Z,86.36
2023-02-19T10:03:41.408Z,85.13
2023-02-19T10:06:26.145Z,84.25
2023-02-19T10:08:57.560Z,83.26
2023-02-19T10:12:05.422Z,82.38
2023-02-19T10:14:53.429Z,80.03
2023-02-19T10:18:02.677Z,80.44
2023-02-19T10:20:52.081Z,80.30
2023-02-19T10:23:51.990Z,80.01
2023-02-19T10:26:22.359Z,80.67
2023-02-19T10:28:54.566Z,81.79
2023-02-19T10:32:03.598Z,83.54
2023-02-19T10:34:32.394Z,84.66
2023-02-19T10:37:21.253Z,85.78
2023-02-19T10:40:09.511Z,86.93
2023-02-19T10:43:05.711Z,87.88
2023-02-19T10:46:03.790Z,89.01
2023-02-19T10:49:11.851Z,88.79
2023-02-19T10:51:48.190Z,87.03
2023-02-19T10:54:56.827Z,85.31
2023-02-19T10:58:04.937Z,87.41
2023-02-19T11:00:54.126Z,88.06
2023-02-19T11:03:49.735Z,88.02
2023-02-19T11:06:31.053Z,90.06
2023-02-19T11:09:39.966Z,92.03
2023-02-19T11:12:39.828Z,93.49
2023-02-19T11:15:09.557Z,93.87
2023-02-19T11:18:32.854Z,96.56
2023-02-19T11:21:21.393Z,98.75
2023-02-19T11:24:45.313Z,100.00
2023-02-19T11:27:35.244Z,100.00
2023-02-19T11:30:44.321Z,100.00
2023-02-19T11:33:13.838Z,100.00
2023-02-19T11:36:02.909Z,100.00
2023-02-19T11:38:46.232Z,100.00
2023-02-19T11:41:14.852Z,100.00
2023-02-19T11:44:23.048Z,100.00
2023-02-19T11:47:11.612Z,100.00
2023-02-19T11:50:19.444Z,100.00
2023-02-19T11:53:34.802Z,100.00
2023-02-19T11:56:20.471Z,100.00
2023-02-19T11:58:53.378Z,100.00
2023-02-19T12:01:50.140Z,100.00
2023-02-19T12:04:57.903Z,100.00
2023-02-19T12:07:46.170Z,100.00
2023-02-19T12:10:19.362Z,100.00
2023-02-19T12:13:28.968Z,100.00
2023-02-19T12:16:05.625Z,100.00
2023-02-19T12:19:13.696Z,100.00
2023-02-19T12:22:04.464Z,100.00
2023-02-19T12:24:56.829Z,100.00
2023-02-19T12:27:45.753Z,100.00
2023-02-19T12:30:31.512Z,100.00
2023-02-19T12:33:20.332Z,100.00
2023-02-19T12:36:09.867Z,100.00
2023-02-19T12:39:18.161Z,100.00
2023-02-19T12:41:48.308Z,100.00
2023-02-19T12:44:44.332Z,100.00
2023-02-19T12:47:40.342Z,100.00
2023-02-19T12:50:09.316Z,100.00
2023-02-19T12:53:01.163Z,100.00
2023-02-19T12:55:38.194Z,100.00
2023-02-19T12:58:27.396Z,99.98
2023-02-19T13:01:16.428Z,100.00
2023-02-19T13:04:05.974Z,100.00
2023-02-19T13:06:38.362Z,100.00
2023-02-19T13:09:46.047Z,100.00
2023-02-19T13:12:15.245Z,100.00
2023-02-19T13:14:57.706Z,100.00
2023-02-19T13:17:33.749Z,100.00
2023-02-19T13:20:25.951Z,100.00
2023-02-19T13:22:56.144Z,100.00
2023-02-19T13:25:48.575Z,100.00
2023-02-19T13:28:35.225Z,100.00
2023-02-19T13:31:11.188Z,100.00
2023-02-19T13:34:11.914Z,100.00
2023-02-19T13:37:02.258Z,100.00
2023-02-19T13:39:52.194Z,100.00
2023-02-19T13:42:40.545Z,99.67
2023-02-19T13:45:37.385Z,98.50
2023-02-19T13:48:15.210Z,96.38
2023-02-19T13:51:12.127Z,95.60
2023-02-19T13:54:01.006Z,95.32
2023-02-19T13:56:53.604Z,95.35
2023-02-19T13:59:45.354Z,96.97
2023-02-19T14:02:53.300Z,96.14
2023-02-19T14:06:03.230Z,97.08
2023-02-19T14:08:52.922Z,94.19
2023-02-19T14:12:00.632Z,94.06
2023-02-19T14:14:58.157Z,94.37
2023-02-19T14:17:46.841Z,94.59
2023-02-19T14:20:35.890Z,94.26
2023-02-19T14:23:43.918Z,93.13
2023-02-19T14:27:12.017Z,92.78
2023-02-19T14:29:56.910Z,93.72
2023-02-19T14:32:26.651Z,93.69
2023-02-19T14:35:51.755Z,94.28
2023-02-19T14:39:00.437Z,94.15
2023-02-19T14:41:28.927Z,93.96
2023-02-19T14:44:20.929Z,94.64
2023-02-19T14:46:49.333Z,94.75
2023-02-19T14:49:42.030Z,93.74
2023-02-19T14:52:49.762Z,93.42
2023-02-19T14:55:33.517Z,93.44
2023-02-19T14:58:38.143Z,92.14
2023-02-19T15:01:27.079Z,92.13
2023-02-19T15:04:08.349Z,91.13
2023-02-19T15:07:04.616Z,90.48
2023-02-19T15:09:54.422Z,90.71
2023-02-19T15:12:57.796Z,90.63
2023-02-19T15:15:46.379Z,90.72
2023-02-19T15:18:18.343Z,90.56
2023-02-19T15:21:07.733Z,90.23
2023-02-19T15:24:00.965Z,90.29
2023-02-19T15:27:16.613Z,90.31
2023-02-19T15:30:08.717Z,90.07
2023-02-19T15:32:53.792Z,89.38
2023-02-19T15:35:34.139Z,88.86
2023-02-19T15:38:04.442Z,88.26
2023-02-19T15:40:39.572Z,88.51
2023-02-19T15:44:07.596Z,87.43
2023-02-19T15:46:56.158Z,88.26
2023-02-19T15:49:47.731Z,89.34
2023-02-19T15:52:21.178Z,90.86
2023-02-19T15:55:05.830Z,92.92
2023-02-19T15:57:35.855Z,93.77
2023-02-19T16:00:33.120Z,94.77
2023-02-19T16:03:19.579Z,96.03
2023-02-19T16:06:00.172Z,96.44
2023-02-19T16:08:32.950Z,97.55
2023-02-19T16:11:26.716Z,97.56
2023-02-19T16:14:23.412Z,99.14
2023-02-19T16:17:31.043Z,99.88
2023-02-19T16:20:35.230Z,99.83
2023-02-19T16:23:06.043Z,100.00
2023-02-19T16:26:05.737Z,100.00
2023-02-19T16:28:34.112Z,100.00
2023-02-19T16:31:42.510Z,100.00
2023-02-19T16:34:36.671Z,100.00
2023-02-19T16:37:32.538Z,100.00
2023-02-19T16:40:03.162Z,100.00
2023-02-19T16:42:59.001Z,100.00
2023-02-19T16:45:28.565Z,100.00
2023-02-19T16:48:24.529Z,100.00
2023-02-19T16:50:53.916Z,100.00
2023-02-19T16:54:03.759Z,100.00
2023-02-19T16:57:31.655Z,100.00
2023-02-19T17:00:19.632Z,100.00
2023-02-19T17:02:53.592Z,100.00
2023-02-19T17:05:25.412Z,100.00
2023-02-19T17:08:16.126Z,100.00
2023-02-19T17:11:04.138Z,100.00
2023-02-19T17:13:52.904Z,100.00
2023-02-19T17:17:02.178Z,100.00
2023-02-19T17:19:54.197Z,100.00
2023-02-19T17:22:44.780Z,100.00
2023-02-19T17:25:53.025Z,100.00
2023-02-19T17:28:41.532Z,100.00
2023-02-19T17:31:33.396Z,100.00
2023-02-19T17:34:30.617Z,100.00
2023-02-19T17:37:33.869Z,100.00
2023-02-19T17:40:05.279Z,100.00
2023-02-19T17:42:51.570Z,100.00
2023-02-19T17:46:19.398Z,100.00
2023-02-19T17:49:24.523Z,100.00
2023-02-19T17:52:15.301Z,100.00
2023-02-19T17:55:07.462Z,100.00
2023-02-19T17:58:05.253Z,100.00
2023-02-19T18:00:53.201Z,100.00
2023-02-19T18:03:26.024Z,100.00
2023-02-19T18:06:35.710Z,100.00
2023-02-19T18:09:31.561Z,100.00
2023-02-19T18:12:25.198Z,100.00
2023-02-19T18:15:18.859Z,100.00
2023-02-19T18:18:08.116Z,100.00
2023-02-19T18:21:04.894Z,100.00
2023-02-19T18:23:33.574Z,100.00
2023-02-19T18:26:25.217Z,100.00
2023-02-19T18:29:13.960Z,100.00
2023-02-19T18:32:02.678Z,100.00
2023-02-19T18:34:58.642Z,100.00
2023-02-19T18:37:52.829Z,100.00
2023-02-19T18:40:26.080Z,100.00
2023-02-19T18:43:25.894Z,100.00
2023-02-19T18:46:16.404Z,100.00
2023-02-19T18:49:00.629Z,100.00
2023-02-19T18:51:50.019Z,100.00
2023-02-19T18:55:13.931Z,100.00
2023-02-19T18:58:23.899Z,100.00
2023-02-19T19:01:12.961Z,100.00
2023-02-19T19:04:17.896Z,100.00
2023-02-19T19:06:51.132Z,100.00
2023-02-19T19:09:41.367Z,100.00
2023-02-19T19:12:58.649Z,100.00
2023-02-19T19:15:50.895Z,100.00
2023-02-19T19:18:35.372Z,100.00
2023-02-19T19:22:03.066Z,100.00
2023-02-19T19:24:55.672Z,100.00
2023-02-19T19:28:20.006Z,100.00
2023-02-19T19:31:08.720Z,100.00
2023-02-19T19:34:13.504Z,100.00
2023-02-19T19:37:22.336Z,100.00
2023-02-19T19:40:31.339Z,100.00
2023-02-19T19:43:27.492Z,100.00
2023-02-19T19:46:36.099Z,100.00
2023-02-19T19:49:32.799Z,100.00
2023-02-19T19:52:25.088Z,100.00
2023-02-19T19:55:41.077Z,100.00
2023-02-19T19:58:34.129Z,100.00
2023-02-19T20:01:38.861Z,100.00
2023-02-19T20:04:36.789Z,100.00
2023-02-19T20:07:25.111Z,100.00
2023-02-19T20:10:34.015Z,100.00
2023-02-19T20:13:46.077Z,100.00
2023-02-19T20:16:54.264Z,100.00
2023-02-19T20:19:40.359Z,100.00
2023-02-19T20:22:32.290Z,100.00
2023-02-19T20:25:10.148Z,100.00
2023-02-19T20:27:57.942Z,100.00
2023-02-19T20:31:21.838Z,100.00
2023-02-19T20:34:30.008Z,100.00
2023-02-19T20:37:15.438Z,100.00
2023-02-19T20:39:50.766Z,100.00
2023-02-19T20:42:39.154Z,100.00
2023-02-19T20:45:27.970Z,100.00
2023-02-19T20:48:00.947Z,100.00
2023-02-19T20:50:49.317Z,100.00
2023-02-19T20:53:37.852Z,100.00
2023-02-19T20:57:05.780Z,100.00
2023-02-19T20:59:57.698Z,100.00
2023-02-19T21:02:54.959Z,100.00
2023-02-19T21:06:05.011Z,100.00
2023-02-19T21:09:32.780Z,100.00
2023-02-19T21:12:22.564Z,100.00
2023-02-19T21:15:13.424Z,100.00
2023-02-19T21:17:42.970Z,100.00
2023-02-19T21:20:16.209Z,100.00
2023-02-19T21:23:24.175Z,100.00
2023-02-19T21:26:32.931Z,100.00
2023-02-19T21:29:22.893Z,100.00
2023-02-19T21:31:55.640Z,100.00
2023-02-19T21:34:27.532Z,100.00
2023-02-19T21:36:57.459Z,100.00
2023-02-19T21:40:02.133Z,100.00
2023-02-19T21:42:54.837Z,100.00
2023-02-19T21:45:43.195Z,100.00
2023-02-19T21:48:13.483Z,100.00
2023-02-19T21:50:46.479Z,100.00
2023-02-19T21:53:44.248Z,100.00
2023-02-19T21:56:14.181Z,100.00
2023-02-19T21:58:45.763Z,100.00
2023-02-19T22:01:15.920Z,100.00
2023-02-19T22:04:25.765Z,100.00
2023-02-19T22:07:33.664Z,100.00
2023-02-19T22:10:21.517Z,100.00
2023-02-19T22:12:58.925Z,100.00
2023-02-19T22:16:06.785Z,100.00
2023-02-19T22:18:51.491Z,100.00
2023-02-19T22:21:59.341Z,100.00
2023-02-19T22:25:03.320Z,100.00
2023-02-19T22:27:51.443Z,100.00
2023-02-19T22:31:00.123Z,100.00
2023-02-19T22:34:08.492Z,100.00
2023-02-19T22:37:00.219Z,100.00
2023-02-19T22:39:49.111Z,100.00
2023-02-19T22:42:52.552Z,100.00
2023-02-19T22:45:35.803Z,100.00
2023-02-19T22:48:43.602Z,100.00
2023-02-19T22:51:34.590Z,100.00
2023-02-19T22:54:43.384Z,100.00
2023-02-19T22:57:14.281Z,100.00
2023-02-19T23:00:26.080Z,100.00
2023-02-19T23:02:54.592Z,100.00
2023-02-19T23:05:31.190Z,100.00
2023-02-19T23:08:09.815Z,100.00
2023-02-19T23:11:33.809Z,100.00
2023-02-19T23:14:41.973Z,100.00
2023-02-19T23:17:50.727Z,100.00
2023-02-19T23:20:42.490Z,100.00
2023-02-19T23:24:10.776Z,100.00
2023-02-19T23:26:59.533Z,100.00
2023-02-19T23:29:47.895Z,100.00
2023-02-19T23:32:51.705Z,100.00
2023-02-19T23:35:49.499Z,100.00
2023-02-19T23:38:53.509Z,100.00
2023-02-19T23:42:01.683Z,100.00
2023-02-19T23:45:09.947Z,100.00
2023-02-19T23:48:25.404Z,100.00
2023-02-19T23:51:33.518Z,100.00
2023-02-19T23:54:24.089Z,100.00
2023-02-19T23:57:43.705Z,100.00
